Aérodrome :
LOGIN :

S'inscrire | Disclaimer

   EN    FR    IT 

 










Légende :    VFR   VFR Marginal   IFR   IFR Intensif   IFR Très Intensif
Visi : 
Plafond : 
>= 8 km
>= 3000ft
5 à 8 km
1000 à 3000 ft
1500m à 5 km
500 à 1000 ft
800 à 1500m
200 à 500 ft
< 800m
< 200 ft
Symboles :   Orages  Brouillard  Fortes neiges  Fortes précipitations  Vent > 20 kt
SIGMETs :   Divers  Orages  Givrage  Turbulence  Onde Orograph.  Cendres Volcan.






- Altitude de l'aérodrome : 231 ft
- Code IATA : WTN


EGXW - RAF Waddington

DERNIER METAR :
  • 010920Z 07008KT 0150 FG VV/// 02/02 Q1034 NOSIG RMK RED RED

METARs EXPIRÉS :
  • 010850Z 09008KT 0150 FG VV/// 02/02 Q1034 NOSIG RMK RED RED
  • 010820Z 08009KT 0300 FG VV/// 03/02 Q1034 NOSIG RMK RED RED
  • 010750Z 07007KT 0200 FG VV/// 03/02 Q1034 NOSIG RMK RED RED
  • 010650Z AUTO 04005KT 0100 FG VV/// 02/02 Q1034

TAF TAF EGXW
Valide du 01 à 09h jusqu'au 02 à 03h UTC


010727Z 0109/0203 08007KT 0200 FG OVC000
BECMG 0111/0113 9999 NSW BKN004
PROB30 0113/0115 BKN007
BECMG 0117/0119 0200 FG OVC000



MET'MAP, la Météo Aéronautique d'un coup d'oeil ! - Copyright ORBIFLY Décembre 2007 - Disclaimer

ORBIFLY MET'MAP TEAM :

Programmation & Développement : Alexandra Zaïnal
Sur une idée originale de : Baudouin d'Aumeries
Assistance à la programmation : Marc-Olivier Méhu
Soutien technique & logistique : Manuel Goepfert

Contact : metmap@orbifly.com




SOURCES & CREDITS :

   NOAA